createdAt,value
2022-08-22T00:02:06.109Z,6.60
2022-08-22T00:03:04.654Z,4.90
2022-08-22T00:03:06.480Z,5.70
2022-08-22T00:07:03.645Z,6.30
2022-08-22T00:11:18.823Z,7.10
2022-08-22T00:15:52.721Z,6.60
2022-08-22T00:20:28.258Z,6.80
2022-08-22T00:24:54.800Z,6.20
2022-08-22T00:29:15.199Z,5.50
2022-08-22T00:33:32.493Z,6.00
2022-08-22T00:38:11.389Z,5.70
2022-08-22T00:42:46.115Z,7.20
2022-08-22T00:46:58.159Z,6.40
2022-08-22T00:51:23.798Z,6.10
2022-08-22T00:56:11.452Z,6.90
2022-08-22T01:00:28.841Z,7.00
2022-08-22T01:04:47.523Z,6.10
2022-08-22T01:09:09.040Z,6.20
2022-08-22T01:13:33.079Z,6.50
2022-08-22T01:18:00.119Z,6.50
2022-08-22T01:22:38.334Z,6.50
2022-08-22T01:27:12.552Z,6.70
2022-08-22T01:31:40.129Z,6.80
2022-08-22T01:36:08.891Z,7.20
2022-08-22T01:45:33.404Z,8.00
2022-08-22T01:50:02.411Z,8.10
2022-08-22T01:54:50.619Z,7.10
2022-08-22T01:59:14.661Z,7.90
2022-08-22T02:03:32.419Z,6.30
2022-08-22T02:08:01.439Z,6.80
2022-08-22T02:12:22.271Z,6.60
2022-08-22T02:16:34.934Z,7.10
2022-08-22T02:21:17.151Z,7.30
2022-08-22T02:25:53.064Z,6.80
2022-08-22T02:30:08.087Z,7.70
2022-08-22T02:34:30.878Z,7.20
2022-08-22T02:39:02.635Z,8.70
2022-08-22T02:43:30.066Z,7.40
2022-08-22T02:47:41.994Z,7.40
2022-08-22T02:51:50.525Z,6.80
2022-08-22T02:56:14.470Z,5.80
2022-08-22T03:00:30.921Z,7.00
2022-08-22T03:04:40.393Z,7.50
2022-08-22T03:09:09.986Z,7.00
2022-08-22T03:13:37.426Z,8.40
2022-08-22T03:18:25.537Z,7.70
2022-08-22T03:22:43.649Z,7.50
2022-08-22T03:27:14.827Z,7.40
2022-08-22T03:31:36.753Z,7.10
2022-08-22T03:35:50.270Z,7.20
2022-08-22T03:40:17.331Z,7.30
2022-08-22T03:44:35.890Z,7.00
2022-08-22T03:49:15.294Z,7.50
2022-08-22T03:53:29.390Z,7.60
2022-08-22T03:57:59.637Z,8.40
2022-08-22T04:02:35.825Z,7.10
2022-08-22T04:07:01.785Z,7.30
2022-08-22T04:11:28.509Z,7.20
2022-08-22T04:15:34.220Z,7.60
2022-08-22T04:19:42.365Z,8.10
2022-08-22T04:28:10.600Z,7.80
2022-08-22T04:32:40.197Z,8.00
2022-08-22T04:37:29.301Z,7.80
2022-08-22T04:41:50.689Z,8.10
2022-08-22T04:46:23.646Z,7.90
2022-08-22T04:50:52.660Z,8.10
2022-08-22T04:55:45.359Z,9.20
2022-08-22T04:59:49.661Z,7.50
2022-08-22T05:04:15.910Z,8.20
2022-08-22T05:08:57.393Z,7.80
2022-08-22T05:13:45.424Z,7.90
2022-08-22T05:18:31.811Z,8.50
2022-08-22T05:23:22.470Z,8.00
2022-08-22T05:27:33.097Z,7.40
2022-08-22T05:31:59.239Z,8.30
2022-08-22T05:36:10.564Z,8.10
2022-08-22T05:40:31.007Z,8.90
2022-08-22T05:44:47.258Z,8.20
2022-08-22T05:49:09.026Z,9.70
2022-08-22T05:54:15.256Z,7.30
2022-08-22T05:58:39.755Z,8.90
2022-08-22T06:03:01.098Z,8.30
2022-08-22T06:07:43.949Z,8.20
2022-08-22T06:12:22.791Z,8.80
2022-08-22T06:17:10.129Z,7.70
2022-08-22T06:21:39.434Z,8.90
2022-08-22T06:25:50.662Z,8.90
2022-08-22T06:30:17.501Z,8.10
2022-08-22T06:34:37.981Z,8.30
2022-08-22T06:38:58.911Z,9.10
2022-08-22T06:43:15.138Z,8.40
2022-08-22T06:47:24.074Z,8.70
2022-08-22T06:51:48.620Z,8.80
2022-08-22T06:55:55.420Z,9.30
2022-08-22T07:00:05.640Z,10.00
2022-08-22T07:04:10.354Z,9.40
2022-08-22T07:08:42.206Z,9.10
2022-08-22T07:12:48.990Z,9.00
2022-08-22T07:17:12.045Z,9.10
2022-08-22T07:22:18.036Z,8.20
2022-08-22T07:27:28.982Z,9.30
2022-08-22T07:31:54.604Z,10.00
2022-08-22T07:37:09.613Z,9.80
2022-08-22T07:41:59.410Z,10.10
2022-08-22T07:46:42.774Z,9.20
2022-08-22T07:51:14.012Z,9.30
2022-08-22T07:55:49.663Z,9.60
2022-08-22T08:00:11.770Z,10.40
2022-08-22T08:04:45.654Z,9.70
2022-08-22T08:09:23.673Z,8.30
2022-08-22T08:13:43.556Z,10.30
2022-08-22T08:18:00.977Z,9.40
2022-08-22T08:22:43.222Z,9.40
2022-08-22T08:27:28.014Z,8.40
2022-08-22T08:31:56.753Z,9.70
2022-08-22T08:36:52.900Z,9.40
2022-08-22T08:47:12.240Z,9.40
2022-08-22T08:51:50.681Z,9.30
2022-08-22T08:56:42.787Z,10.10
2022-08-22T09:01:31.387Z,10.20
2022-08-22T09:06:32.899Z,8.80
2022-08-22T09:11:28.333Z,9.40
2022-08-22T09:16:39.133Z,8.90
2022-08-22T09:21:38.776Z,7.90
2022-08-22T09:26:15.923Z,8.10
2022-08-22T09:35:28.116Z,7.00
2022-08-22T09:55:59.394Z,7.70
2022-08-22T10:06:53.806Z,7.70
2022-08-22T10:45:24.025Z,5.50
2022-08-22T10:56:12.465Z,6.20
